Terminal Aerodrome Forecast
Issued by NWS

Home | Current Version | Previous Version | Text Only | Print | Product List | Glossary On
Versions: 1 2 3 4 5 6 7 8 9 10 11 12 13
000
FTUS44 KCRP 191700
TAFALI
TAF
KALI 191720Z 1918/2018 16006KT P6SM VCSH SCT035 BKN250
      TEMPO 1920/1923 -SHRA BKN035
     FM192300 13011KT P6SM BKN035
     FM201000 VRB04KT 5SM BR BKN018
     FM201400 12010KT P6SM VCSH SCT025 BKN040=

USA.gov is the U.S. government's official web portal to all federal, state and local government web resources and services.